METAR Data
IDs: Format: Raw Decoded Include TAF

Data at: 1755 UTC 26 Oct 2021

KJDD 261735Z AUTO 13004KT 10SM OVC020 24/18 A2991 RMK AO2
KJDD 261715Z AUTO 14005KT 10SM OVC020 24/18 A2991 RMK AO2
KJDD 261655Z AUTO 12006KT 10SM OVC020 24/17 A2992 RMK AO2
KJDD 261635Z AUTO 13005KT 10SM OVC016 23/17 A2994 RMK AO2
KJDD 261615Z AUTO 13004KT 10SM OVC016 23/17 A2995 RMK AO2
KJDD 261555Z AUTO 00000KT 10SM BKN018 BKN030 22/17 A2995 RMK AO2
KJDD 261535Z AUTO 10003KT 10SM SCT030 21/16 A2996 RMK AO2
KJDD 261515Z AUTO 21/16 RMK AO2 PWINO TSNO
KJDD 261455Z AUTO 12005KT BKN011 BKN034 21/15 A2996 RMK AO2 PWINO
KJDD 261435Z AUTO 12006KT 21/15 A2996 RMK AO2
KJDD 261355Z AUTO 00000KT 10SM OVC010 21/16 A2996 RMK AO2
KJDD 261335Z AUTO 00000KT 10SM OVC011 20/15 A2995 RMK AO2
KJDD 261315Z AUTO 11004KT 10SM OVC011 20/15 A2995 RMK AO2
KJDD 261255Z AUTO 13003KT 10SM OVC011 20/14 A2995 RMK AO2
KJDD 261235Z AUTO 12003KT 10SM BKN013 BKN021 OVC034 20/14 A2995 RMK AO2
KJDD 261215Z AUTO 00000KT 10SM BKN013 OVC021 20/14 A2995 RMK AO2
KJDD 261155Z AUTO 00000KT 10SM BKN013 BKN019 OVC040 20/14 A2994 RMK AO2
KJDD 261135Z AUTO 00000KT 10SM BKN013 BKN041 OVC047 20/14 A2994 RMK AO2
KJDD 261115Z AUTO 12003KT 10SM SCT013 SCT031 BKN043 20/14 A2994 RMK AO2
KJDD 261055Z AUTO 10003KT 10SM BKN013 BKN031 BKN047 20/14 A2994 RMK AO2
KJDD 261035Z AUTO 11003KT 10SM OVC013 20/14 A2994 RMK AO2
KJDD 261015Z AUTO 00000KT 10SM SCT013 BKN040 20/14 A2993 RMK AO2
KJDD 260955Z AUTO 12003KT 10SM SCT042 19/14 A2993 RMK AO2
KJDD 260935Z AUTO 00000KT 10SM BKN042 20/14 A2993 RMK AO2
KJDD 260915Z AUTO 00000KT 10SM BKN040 20/13 A2993 RMK AO2
KJDD 260855Z AUTO 00000KT 10SM SCT040 19/13 A2993 RMK AO2
KJDD 260835Z AUTO 00000KT 10SM SCT042 19/13 A2993 RMK AO2
KJDD 260815Z AUTO 00000KT 10SM SCT040 19/13 A2993 RMK AO2
KJDD 260755Z AUTO 00000KT 10SM BKN038 BKN044 19/13 A2994 RMK AO2
KJDD 260735Z AUTO 00000KT 10SM SCT041 SCT047 19/13 A2994 RMK AO2
KJDD 260715Z AUTO 12003KT 10SM SCT027 BKN039 BKN047 20/13 A2994 RMK AO2
KJDD 260655Z AUTO 12003KT 10SM BKN039 20/12 A2994 RMK AO2
KJDD 260635Z AUTO 00000KT 10SM BKN037 BKN046 20/12 A2994 RMK AO2
KJDD 260615Z AUTO 00000KT 10SM SCT035 SCT041 SCT048 19/12 A2995 RMK AO2
KJDD 260555Z AUTO 00000KT 10SM BKN039 BKN048 19/13 A2995 RMK AO2
KJDD 260535Z AUTO 00000KT 10SM SCT041 18/12 A2995 RMK AO2
KJDD 260515Z AUTO 00000KT 10SM SCT045 18/13 A2996 RMK AO2
KJDD 260455Z AUTO 00000KT 10SM CLR 18/13 A2996 RMK AO2
KJDD 260335Z AUTO 00000KT 10SM CLR 19/14 A2996 RMK AO2
KJDD 260315Z AUTO 00000KT 10SM CLR 19/13 A2997 RMK AO2
KJDD 260255Z AUTO 00000KT 10SM CLR 19/14 A2996 RMK AO2
KJDD 260235Z AUTO 00000KT 10SM CLR 19/13 A2995 RMK AO2
KJDD 260155Z AUTO 00000KT 10SM CLR 20/14 A2995 RMK AO2
KJDD 260135Z AUTO 00000KT 10SM CLR 20/14 A2995 RMK AO2
KJDD 260115Z AUTO 00000KT 10SM CLR 21/14 A2995 RMK AO2
KJDD 260055Z AUTO 00000KT 10SM CLR 21/14 A2994 RMK AO2
KJDD 260035Z AUTO 00000KT 10SM CLR 22/14 A2994 RMK AO2
KJDD 260015Z AUTO 00000KT 10SM CLR 23/14 A2993 RMK AO2
KJDD 252355Z AUTO 00000KT 10SM CLR 23/15 A2993 RMK AO2
KJDD 252335Z AUTO 00000KT 10SM CLR 25/15 A2992 RMK AO2
KJDD 252315Z AUTO 00000KT 10SM CLR 27/15 A2992 RMK AO2
KJDD 252255Z AUTO 00000KT 10SM CLR 29/13 A2991 RMK AO2
KJDD 252235Z AUTO 06003KT 10SM CLR 30/12 A2992 RMK AO2
KJDD 252215Z AUTO 00000KT 10SM CLR 31/12 A2992 RMK AO2
KJDD 252155Z AUTO 06004KT 10SM CLR 31/11 A2992 RMK AO2
KJDD 252135Z AUTO 07003KT 10SM CLR 31/12 A2992 RMK AO2
KJDD 252115Z AUTO 05003KT 10SM CLR 31/11 A2992 RMK AO2
KJDD 252055Z AUTO 12004KT 10SM CLR 31/12 A2992 RMK AO2
KJDD 252035Z AUTO 11003KT 10SM CLR 31/12 A2992 RMK AO2
KJDD 252015Z AUTO 14004KT 10SM CLR 31/11 A2993 RMK AO2
KJDD 251955Z AUTO 05003KT 10SM CLR 31/10 A2994 RMK AO2
KJDD 251935Z AUTO 07003KT 10SM CLR 31/10 A2994 RMK AO2
KJDD 251915Z AUTO 04003KT 10SM CLR 30/09 A2994 RMK AO2
KJDD 251855Z AUTO 06005KT 10SM CLR 30/09 A2995 RMK AO2
KJDD 251835Z AUTO 08003KT 10SM CLR 29/10 A2996 RMK AO2
KJDD 251815Z AUTO 04004KT 10SM CLR 29/09 A2997 RMK AO2
KJDD 251755Z AUTO 06004KT 10SM CLR 29/11 A2997 RMK AO2
KJDD 251735Z AUTO 00000KT 10SM CLR 28/11 A2998 RMK AO2
KJDD 251715Z AUTO 10003KT 10SM CLR 27/12 A2999 RMK AO2
KJDD 251655Z AUTO 00000KT 10SM CLR 27/12 A2999 RMK AO2
KJDD 251635Z AUTO 06004KT 10SM CLR 27/12 A2999 RMK AO2
KJDD 251615Z AUTO 00000KT 10SM CLR 25/13 A2999 RMK AO2
KJDD 251555Z AUTO 06006KT 10SM CLR 25/13 A3000 RMK AO2
KJDD 251535Z AUTO 00000KT 10SM CLR 24/14 A3000 RMK AO2
KJDD 251515Z AUTO 05004KT 10SM CLR 23/14 A3000 RMK AO2
KJDD 251455Z AUTO 00000KT 10SM CLR 22/16 A3000 RMK AO2
KJDD 251435Z AUTO 08003KT 10SM CLR 21/16 A3000 RMK AO2
KJDD 251415Z AUTO 06003KT 10SM CLR 20/16 A3000 RMK AO2
KJDD 251355Z AUTO 00000KT 10SM CLR 18/16 A2999 RMK AO2
KJDD 251335Z AUTO 00000KT 10SM CLR 16/15 A2998 RMK AO2
KJDD 251315Z AUTO 00000KT 10SM CLR 15/15 A2997 RMK AO2
KJDD 251215Z AUTO 00000KT 10SM CLR 16/15 A2996 RMK AO2
KJDD 251155Z AUTO 00000KT 10SM CLR 16/15 A2995 RMK AO2
KJDD 251140Z AUTO 00000KT 10SM CLR 16/15 A2995 RMK AO2
KJDD 251035Z AUTO 00000KT 10SM CLR 18/15 A2993 RMK AO2
KJDD 251015Z AUTO 00000KT 10SM CLR 18/16 A2994 RMK AO2
KJDD 250955Z AUTO 01003KT 10SM CLR 19/16 A2993 RMK AO2
KJDD 250935Z AUTO 00000KT 10SM CLR 19/17 A2993 RMK AO2
KJDD 250915Z AUTO 00000KT 10SM CLR 19/17 A2992 RMK AO2
KJDD 250855Z AUTO 34003KT 10SM CLR 20/17 A2992 RMK AO2
KJDD 250835Z AUTO 32005KT 10SM CLR 20/18 A2992 RMK AO2
KJDD 250815Z AUTO 33004KT 10SM CLR 21/19 A2991 RMK AO2
KJDD 250755Z AUTO 32004KT 10SM CLR 21/19 A2991 RMK AO2
KJDD 250735Z AUTO 31003KT 10SM SCT047 SCT055 22/20 A2991 RMK AO2
KJDD 250715Z AUTO 33007KT 10SM BKN047 BKN055 22/19 A2990 RMK AO2
KJDD 250655Z AUTO 20005KT 10SM BKN047 BKN055 BKN070 22/20 A2989 RMK AO2
KJDD 250635Z AUTO 00000KT 10SM SCT049 BKN070 21/19 A2989 RMK AO2
KJDD 250615Z AUTO 00000KT 10SM SCT046 SCT060 BKN070 21/19 A2990 RMK AO2